Virtual Norwegian is not affiliated with Norwegian Air Shuttle in any way.
If you are looking for the real "Norwegian", or you wish to book Norwegian flights, please visit Norwegian.com


We use cookies to ensure you get the best experience on our website.   ACCEPT

KPVD - PVD - Providence (Theodore Francis Green State)

General Info Alternate Airport
ICAO: KPVD Elevation: 55 ft ICAO: KBOS
IATA: PVD Country: United States IATA: BOS
City: Providence Charts: Log in to view charts City: Boston
Name: Theodore Francis Green State Hub: No Name General Edward Lawrence Logan Intl
General Info
ICAO: KPVD
IATA: PVD
City: Providence
Name: Theodore Francis Green State
Elevation: 55 ft
Country: United States
Charts: Log in to view charts
Hub: No
 
Alternate Airport
ICAO: KBOS
IATA: BOS
City: Boston
Name: General Edward Lawrence Logan Intl

Weather
211951Z 26004KT 10SM FEW250 BKN300 10/M01 A3012 RMK AO2 SLP198 T01001006
Weather
211951Z 26004KT 10SM FEW250 BKN300 10/M01 A3012 RMK AO2 SLP198 T01001006

NOTAMs
NOTAMs currently unavailable.
NOTAMs
NOTAMs currently unavailable

Route map
Airport
Airport (hub)